Ehrhardt, SC (29081)

4:01 PM EDT on August 23, 2014 (GMT -0400)
KQ4WH, Skunkworks | Change Station
CLOSE
Current Station
Personal Weather Station
Location: Smoaks, SC
Elevation: 108 ft
Nearby Weather Stations

Elev 108 ft 33.09 °N, 80.81 °W | Updated 2 seconds ago

Clear
Clear
95.4 °F
Feels Like 108 °F
N
0.0
Wind Variable Wind from NW
Gusts 0.0 mph

Today
High -- | Low -- °F
--% Chance of Precip.
Yesterday
High -- | Low -- °F
Precip. -- in
6:52 AM 8:00 PM
Waning Crescent, 3% visible
Pressure 29.86 in
Visibility 10.0 miles
Clouds Clear
Heat Index 108 °F
Dew Point 75 °F
Humidity 52%
Rainfall 0.00 in
Snow Depth Not available.
UV 8 out of 12
Pollen 7.30 out of 12
Air Quality Not available.
Flu Activity Not available.
METAR KRBW 231955Z AUTO 00000KT 10SM CLR 37/15 A2986 RMK AO2

More Conditions Fewer Conditions

Pressure 29.86 in
Visibility 10.0 miles
Clouds Clear
Heat Index 108 °F
Dew Point 75 °F
Humidity 52%
Rainfall 0.00 in
Snow Depth Not available.
UV 8 out of 12
Pollen 7.30 out of 12
Air Quality Not available.
Flu Activity Not available.
METAR KRBW 231955Z AUTO 00000KT 10SM CLR 37/15 A2986 RMK AO2

More Conditions Fewer Conditions

10-Day Weather Forecast

Almanac

Astronomy

Aug. 23, 2014 Rise Set
Actual Time 6:52 AM EDT 8:00 PM EDT
Civil Twilight 6:26 AM EDT 8:25 PM EDT
Nautical Twilight 5:56 AM EDT 8:56 PM EDT
Astronomical Twilight 5:24 AM EDT 9:27 PM EDT
Moon 5:09 AM EDT 6:43 PM EDT
Length of Visible Light 13h 59m
Length of Day
13h 07m
Tomorrow will be 1m 53s shorter.
Waning Crescent, 3% of the Moon is Illuminated
Today
Waning Crescent
Aug 25
New
Sep 2
First Quarter
Sep 8
Full
Sep 15
Last Quarter

Today's Extremes

State Highs State Lows

Community

WunderPhotos

Upload Photos

1,746,593 photos uploaded!

WunderBlogs® & News

Nearby

Snow Depth

Station Depth Elevation
No new snow has been reported.

Earthquake Activity

City Distance Mag. Time & Date
No recent earthquake activity has been reported nearby.
Minimum magnitude displayed is 2.5.

Coastal Water Temperatures

Place Temperature
No Stations Reporting

Nearby Weather Stations